Time;durP1;ratioP1;P1;durP2;ratioP2;P2;SDS_P1;SDS_P2;PMS_P1;PMS_P2;Temp;Humidity;BMP_temperature;BMP_pressure;BME280_temperature;BME280_humidity;BME280_pressure;Samples;Min_cycle;Max_cycle;Signal;HPM_P1;HPM_P2
2022/08/27 00:00:44;;;;;;;15.53;3.92;;;;;;;22.87;32.01;100335.53;1825845;78;20911;-89
2022/08/27 00:03:10;;;;;;;9.90;3.62;;;;;;;22.85;31.93;100329.53;1825460;78;21381;-88
2022/08/27 00:05:38;;;;;;;9.35;3.40;;;;;;;22.82;32.05;100336.08;1825255;78;21513;-88
2022/08/27 00:08:05;;;;;;;8.60;3.60;;;;;;;22.81;32.29;100335.77;1825447;78;20884;-88
2022/08/27 00:10:32;;;;;;;5.47;4.00;;;;;;;22.79;32.14;100332.92;1825429;78;21453;-88
2022/08/27 00:13:01;;;;;;;9.40;3.37;;;;;;;22.78;32.19;100343.30;1825317;78;20876;-88
2022/08/27 00:15:28;;;;;;;8.18;2.90;;;;;;;22.74;31.87;100332.97;1825165;78;22342;-89
2022/08/27 00:17:54;;;;;;;14.15;3.67;;;;;;;22.74;31.98;100342.81;1825195;78;20848;-87
2022/08/27 00:20:24;;;;;;;6.78;3.77;;;;;;;22.72;32.45;100334.98;1825142;78;20852;-89
2022/08/27 00:22:52;;;;;;;5.42;2.95;;;;;;;22.73;31.76;100333.14;1825124;78;20974;-88
2022/08/27 00:25:19;;;;;;;15.88;4.10;;;;;;;22.71;31.81;100337.32;1825416;78;20908;-88
2022/08/27 00:27:45;;;;;;;4.90;3.33;;;;;;;22.69;31.77;100331.31;1826797;78;21134;-87
2022/08/27 00:30:14;;;;;;;6.58;3.20;;;;;;;22.69;31.84;100330.49;1828619;78;20928;-88
2022/08/27 00:32:41;;;;;;;8.25;3.12;;;;;;;22.68;32.00;100327.51;1828111;78;21208;-88
2022/08/27 00:35:08;;;;;;;11.38;3.72;;;;;;;22.67;32.17;100332.51;1827863;78;20935;-87
2022/08/27 00:37:35;;;;;;;7.65;2.83;;;;;;;22.64;32.15;100325.69;1826784;78;20903;-88
2022/08/27 00:40:03;;;;;;;10.18;3.98;;;;;;;22.63;32.68;100324.00;1825307;78;21799;-88
2022/08/27 00:42:29;;;;;;;7.80;4.03;;;;;;;22.64;32.43;100337.71;1825802;78;21384;-86
2022/08/27 00:44:56;;;;;;;7.37;4.05;;;;;;;22.62;32.70;100328.21;1825778;78;20852;-86
2022/08/27 00:47:24;;;;;;;6.50;3.35;;;;;;;22.62;32.86;100338.39;1793598;78;20966;-86
2022/08/27 00:50:07;;;;;;;8.28;4.00;;;;;;;22.61;33.00;100342.56;1825540;78;20927;-86
2022/08/27 00:52:42;;;;;;;8.07;3.67;;;;;;;22.59;33.35;100340.09;1825481;78;21316;-86
2022/08/27 00:55:17;;;;;;;5.53;3.08;;;;;;;22.56;34.15;100345.77;1824276;78;21045;-87
2022/08/27 00:57:47;;;;;;;9.28;3.70;;;;;;;22.51;34.84;100340.97;1825178;78;20918;-87
2022/08/27 01:00:16;;;;;;;7.60;3.83;;;;;;;22.46;35.26;100347.34;1824743;78;21365;-86
2022/08/27 01:02:45;;;;;;;6.62;3.75;;;;;;;22.40;35.70;100343.22;1825321;78;21464;-89
2022/08/27 01:05:15;;;;;;;8.63;3.47;;;;;;;22.31;36.49;100344.59;1825266;78;21231;-87
2022/08/27 01:07:45;;;;;;;10.98;4.72;;;;;;;22.23;36.27;100339.79;1825143;78;20888;-87
2022/08/27 01:10:16;;;;;;;11.93;4.08;;;;;;;22.13;37.04;100344.81;1825205;78;20951;-85
2022/08/27 01:12:43;;;;;;;5.83;4.00;;;;;;;22.06;37.60;100337.69;1825774;78;20919;-87
2022/08/27 01:15:13;;;;;;;9.53;4.55;;;;;;;21.95;38.29;100342.91;1825309;78;20998;-87
2022/08/27 01:17:41;;;;;;;13.48;4.15;;;;;;;21.85;38.34;100337.75;1825292;78;21149;-88
2022/08/27 01:20:14;;;;;;;16.60;6.05;;;;;;;21.75;38.87;100337.64;1825119;78;21495;-89
2022/08/27 01:22:46;;;;;;;;;;;;;;;21.65;37.99;100339.98;1829340;78;20954;-88
2022/08/27 01:25:14;;;;;;;8.38;4.50;;;;;;;21.58;39.52;100343.01;1827604;78;20077;-89
2022/08/27 01:27:43;;;;;;;7.53;5.17;;;;;;;21.51;40.27;100350.03;1828515;78;20908;-87
2022/08/27 01:30:11;;;;;;;10.85;5.25;;;;;;;21.43;40.76;100343.38;1828583;78;21124;-87
2022/08/27 01:32:39;;;;;;;12.50;6.12;;;;;;;21.36;41.01;100345.02;1828740;78;21332;-87
2022/08/27 01:35:08;;;;;;;12.95;5.65;;;;;;;21.29;41.47;100342.20;1828065;78;20951;-87
2022/08/27 01:37:34;;;;;;;8.75;5.03;;;;;;;21.22;41.99;100342.04;1828095;78;20856;-87
2022/08/27 01:40:02;;;;;;;11.03;5.62;;;;;;;21.15;42.29;100339.72;1828447;78;20947;-87
2022/08/27 01:42:36;;;;;;;8.55;5.80;;;;;;;21.08;42.81;100336.89;1828827;78;21154;-84
2022/08/27 01:45:11;;;;;;;9.80;5.60;;;;;;;21.01;42.93;100336.38;1820969;78;20931;-88
2022/08/27 01:47:37;;;;;;;13.98;5.90;;;;;;;20.95;43.40;100332.56;1825852;78;20876;-87
2022/08/27 01:50:08;;;;;;;13.83;5.72;;;;;;;20.86;43.65;100333.05;1825422;78;21337;-86
2022/08/27 01:52:35;;;;;;;9.88;6.60;;;;;;;20.79;44.02;100330.72;1826162;78;20852;-88
2022/08/27 01:55:04;;;;;;;14.60;6.67;;;;;;;20.72;44.16;100338.20;1827952;78;21424;-86
2022/08/27 01:57:31;;;;;;;13.13;5.90;;;;;;;20.65;44.08;100334.02;1826145;78;20967;-88
2022/08/27 01:59:58;;;;;;;10.68;6.25;;;;;;;20.58;44.53;100332.52;1825401;78;20930;-88
2022/08/27 02:02:25;;;;;;;11.30;6.20;;;;;;;20.53;44.91;100332.66;1825289;78;20863;-88
2022/08/27 02:04:51;;;;;;;17.48;6.92;;;;;;;20.48;45.49;100328.66;1825441;78;20927;-88
2022/08/27 02:07:18;;;;;;;12.58;7.37;;;;;;;20.43;45.24;100334.98;1825344;78;21195;-88
2022/08/27 02:09:45;;;;;;;8.90;5.92;;;;;;;20.39;44.48;100330.14;1825202;78;20876;-87
2022/08/27 02:12:12;;;;;;;8.48;5.78;;;;;;;20.35;45.42;100334.95;1825538;78;20982;-88
2022/08/27 02:14:38;;;;;;;10.10;6.15;;;;;;;20.32;45.78;100331.77;1825303;78;20880;-88
2022/08/27 02:17:05;;;;;;;6.60;5.08;;;;;;;20.27;46.22;100331.75;1825381;78;20926;-88
2022/08/27 02:19:32;;;;;;;11.10;6.35;;;;;;;20.24;46.24;100339.25;1825156;78;21230;-88
2022/08/27 02:21:59;;;;;;;17.70;6.95;;;;;;;20.21;46.81;100335.55;1825361;78;20919;-86
2022/08/27 02:24:28;;;;;;;16.42;6.28;;;;;;;20.16;46.32;100345.36;1825729;78;20895;-85
2022/08/27 02:26:55;;;;;;;10.15;6.87;;;;;;;20.13;46.22;100345.70;1824795;78;20892;-87
2022/08/27 02:29:22;;;;;;;11.48;7.87;;;;;;;20.08;46.54;100350.17;1825260;78;21424;-89
2022/08/27 02:31:49;;;;;;;9.60;6.42;;;;;;;20.02;46.68;100341.48;1825146;78;21748;-88
2022/08/27 02:34:17;;;;;;;10.48;6.50;;;;;;;19.99;47.05;100348.47;1825029;78;20841;-88
2022/08/27 02:36:43;;;;;;;15.78;7.60;;;;;;;19.96;47.48;100354.60;1825340;78;20958;-88
2022/08/27 02:39:10;;;;;;;18.00;8.28;;;;;;;19.92;47.97;100354.58;1825180;78;21412;-88
2022/08/27 02:41:37;;;;;;;10.53;7.35;;;;;;;19.88;48.32;100358.08;1825249;78;20911;-88
2022/08/27 02:44:04;;;;;;;13.28;6.70;;;;;;;19.83;48.46;100357.22;1825183;78;21128;-88
2022/08/27 02:46:31;;;;;;;14.38;6.78;;;;;;;19.78;48.71;100352.85;1818937;78;20936;-88
2022/08/27 02:48:57;;;;;;;12.95;7.17;;;;;;;19.73;48.67;100360.98;1817689;78;20907;-89
2022/08/27 02:51:24;;;;;;;11.43;7.12;;;;;;;19.66;48.24;100356.76;1817823;79;20884;-88
2022/08/27 02:53:50;;;;;;;12.53;7.28;;;;;;;19.62;49.11;100356.23;1817982;79;20978;-87
2022/08/27 02:56:17;;;;;;;10.80;6.25;;;;;;;19.57;49.49;100361.70;1817639;78;21190;-88
2022/08/27 03:00:12;;;;;;;15.38;7.75;;;;;;;19.57;49.75;100356.38;1884188;75;22438;-87
2022/08/27 03:02:39;;;;;;;16.50;7.20;;;;;;;19.51;45.89;100355.16;1861209;77;21052;-87
2022/08/27 03:05:10;;;;;;;11.48;7.28;;;;;;;19.55;46.77;100356.52;1860893;77;20867;-88
2022/08/27 03:07:39;;;;;;;14.15;7.50;;;;;;;19.59;48.67;100360.55;1860816;77;20816;-89
2022/08/27 03:10:08;;;;;;;13.58;8.45;;;;;;;19.60;48.91;100358.21;1860826;76;20923;-89
2022/08/27 03:12:35;;;;;;;19.80;8.08;;;;;;;19.60;49.25;100368.02;1861222;77;20899;-88
2022/08/27 03:15:05;;;;;;;11.45;7.92;;;;;;;19.57;49.47;100361.70;1860744;77;20910;-87
2022/08/27 03:20:19;;;;;;;21.77;9.93;;;;;;;19.49;50.20;100365.63;1858983;76;20828;-88
2022/08/27 03:22:46;;;;;;;17.73;9.00;;;;;;;19.43;50.10;100375.91;1861256;77;20887;-88
2022/08/27 03:25:14;;;;;;;23.25;10.32;;;;;;;19.40;49.82;100383.34;1860841;77;20889;-87
2022/08/27 03:27:41;;;;;;;19.23;9.78;;;;;;;19.35;49.29;100377.67;1863578;77;20969;-88
2022/08/27 03:30:12;;;;;;;22.40;11.03;;;;;;;19.34;48.93;100374.19;1863533;76;21204;-87
2022/08/27 03:32:38;;;;;;;19.75;8.60;;;;;;;19.34;48.59;100375.98;1861965;76;20863;-88
2022/08/27 03:35:05;;;;;;;17.10;9.28;;;;;;;19.34;48.86;100378.17;1861892;77;21404;-87
2022/08/27 03:37:32;;;;;;;21.35;9.20;;;;;;;19.35;48.75;100381.66;1860794;77;20950;-88
2022/08/27 03:39:58;;;;;;;17.45;9.38;;;;;;;19.35;48.73;100381.66;1861013;77;20910;-87
2022/08/27 03:42:25;;;;;;;33.73;10.88;;;;;;;19.35;49.36;100375.84;1860811;76;21218;-87
2022/08/27 03:44:52;;;;;;;16.85;9.25;;;;;;;19.36;49.22;100379.33;1860986;77;21456;-88
2022/08/27 03:47:18;;;;;;;20.82;9.48;;;;;;;19.37;49.62;100373.03;1860817;77;21266;-88
2022/08/27 03:49:45;;;;;;;14.68;8.53;;;;;;;19.40;49.83;100379.36;1860919;76;20927;-88
2022/08/27 03:52:13;;;;;;;15.03;9.25;;;;;;;19.40;50.04;100376.70;1861075;76;20934;-88
2022/08/27 03:54:39;;;;;;;17.95;8.43;;;;;;;19.42;49.70;100376.88;1860824;76;21174;-89
2022/08/27 03:57:06;;;;;;;14.23;9.53;;;;;;;19.45;50.10;100373.93;1860777;77;20875;-88
2022/08/27 03:59:32;;;;;;;19.67;9.95;;;;;;;19.50;49.73;100375.26;1859696;77;20923;-88
2022/08/27 04:02:00;;;;;;;20.08;8.55;;;;;;;19.53;49.07;100377.13;1861111;77;20907;-88
2022/08/27 04:04:27;;;;;;;17.20;9.08;;;;;;;19.60;45.42;100374.17;1860867;76;20907;-89
2022/08/27 04:06:54;;;;;;;15.30;10.68;;;;;;;19.72;45.35;100376.59;1861239;76;21286;-90
2022/08/27 04:09:21;;;;;;;17.45;9.58;;;;;;;19.83;45.74;100371.86;1860703;76;21483;-88
2022/08/27 04:11:48;;;;;;;25.02;8.85;;;;;;;19.97;46.24;100374.92;1860175;76;20872;-89
2022/08/27 04:14:15;;;;;;;14.58;7.95;;;;;;;20.07;45.37;100375.61;1860115;76;20871;-89
2022/08/27 04:16:43;;;;;;;18.10;8.90;;;;;;;20.16;43.28;100369.33;1860231;76;20932;-89
2022/08/27 04:19:11;;;;;;;19.65;8.53;;;;;;;20.26;42.24;100366.05;1859996;77;21148;-89
2022/08/27 04:21:38;;;;;;;18.77;7.45;;;;;;;20.37;42.34;100366.25;1860388;77;20852;-89
2022/08/27 04:24:05;;;;;;;20.30;8.28;;;;;;;20.45;41.59;100364.09;1860154;77;20962;-88
2022/08/27 04:26:31;;;;;;;25.62;8.35;;;;;;;20.53;40.63;100367.30;1860278;76;21081;-90
2022/08/27 04:28:58;;;;;;;17.50;8.18;;;;;;;20.59;40.73;100362.17;1860427;77;21341;-87
2022/08/27 04:31:25;;;;;;;19.95;8.68;;;;;;;20.65;39.41;100364.67;1860210;76;21076;-90
2022/08/27 04:33:54;;;;;;;22.17;8.20;;;;;;;20.72;39.18;100366.17;1860129;77;21014;-88
2022/08/27 04:36:21;;;;;;;21.70;8.53;;;;;;;20.77;39.68;100372.70;1860142;77;21440;-88
2022/08/27 04:38:48;;;;;;;14.45;8.75;;;;;;;20.83;40.23;100371.19;1859997;77;20879;-88
2022/08/27 04:41:21;;;;;;;22.60;9.18;;;;;;;20.87;39.07;100375.20;1860108;77;20959;-88
2022/08/27 04:43:55;;;;;;;16.75;8.78;;;;;;;20.95;38.49;100380.55;1860867;76;21795;-86
2022/08/27 04:46:29;;;;;;;18.12;9.05;;;;;;;21.06;38.33;100378.06;1858656;76;20986;-89
2022/08/27 04:48:56;;;;;;;;;;;;;;;21.19;37.78;100381.53;1863674;77;20876;-87
2022/08/27 04:51:23;;;;;;;25.23;8.50;;;;;;;21.33;38.15;100373.70;1863436;77;20079;-88
2022/08/27 04:53:50;;;;;;;21.37;8.15;;;;;;;21.49;37.86;100371.54;1861157;77;20958;-88
2022/08/27 04:56:20;;;;;;;19.45;7.15;;;;;;;21.70;37.32;100379.53;1860210;76;21147;-88
2022/08/27 04:58:46;;;;;;;10.08;5.67;;;;;;;21.94;37.26;100382.61;1859931;77;21175;-89
2022/08/27 05:01:24;;;;;;;15.43;5.67;;;;;;;22.20;36.52;100368.16;1860175;77;20859;-90
2022/08/27 05:03:50;;;;;;;14.63;6.35;;;;;;;22.52;35.87;100377.39;1859785;76;20867;-86
2022/08/27 05:06:17;;;;;;;20.97;5.67;;;;;;;22.96;35.47;100375.91;1860630;76;20859;-87
2022/08/27 05:08:43;;;;;;;12.23;4.37;;;;;;;23.44;34.64;100377.88;1860710;77;21115;-87
2022/08/27 05:11:13;;;;;;;13.72;4.75;;;;;;;23.91;34.19;100372.72;1861494;77;20926;-88
2022/08/27 05:13:42;;;;;;;15.80;4.12;;;;;;;24.45;33.73;100372.04;1860858;77;21287;-89
2022/08/27 05:16:12;;;;;;;13.08;4.65;;;;;;;24.98;32.68;100376.12;1860056;77;20918;-88
2022/08/27 05:18:39;;;;;;;20.25;4.53;;;;;;;25.48;31.93;100375.30;1860563;77;20840;-89
2022/08/27 05:21:06;;;;;;;13.95;3.75;;;;;;;25.97;31.01;100374.42;1860456;77;21370;-89
2022/08/27 05:23:33;;;;;;;14.90;4.30;;;;;;;26.42;30.45;100376.97;1860214;77;20927;-89
2022/08/27 05:26:00;;;;;;;13.90;3.62;;;;;;;26.78;29.79;100367.77;1860086;76;20891;-89
2022/08/27 05:28:27;;;;;;;16.02;4.33;;;;;;;27.15;29.16;100369.57;1860165;77;20930;-88
2022/08/27 05:30:59;;;;;;;13.70;4.17;;;;;;;27.44;28.91;100364.30;1860142;77;20965;-90
2022/08/27 05:33:25;;;;;;;11.18;4.72;;;;;;;27.63;28.55;100365.81;1859640;76;21070;-89
2022/08/27 05:35:54;;;;;;;14.07;3.67;;;;;;;27.68;28.18;100361.46;1860070;77;20856;-89
2022/08/27 05:38:21;;;;;;;15.28;4.03;;;;;;;27.57;27.81;100366.64;1860438;77;20939;-88
2022/08/27 05:40:49;;;;;;;16.95;4.20;;;;;;;27.34;28.25;100365.75;1860130;76;20919;-91
2022/08/27 05:43:17;;;;;;;13.22;4.37;;;;;;;27.11;28.43;100358.91;1860260;77;20930;-88
2022/08/27 05:45:46;;;;;;;13.78;4.35;;;;;;;26.94;28.83;100359.81;1860108;77;21096;-88
2022/08/27 05:48:16;;;;;;;13.50;4.67;;;;;;;26.79;28.53;100353.30;1860063;76;20970;-87
2022/08/27 05:50:43;;;;;;;13.13;3.70;;;;;;;26.69;28.45;100352.04;1860104;77;20922;-88
2022/08/27 05:53:11;;;;;;;14.47;4.20;;;;;;;26.67;28.82;100350.36;1860212;77;20847;-88
2022/08/27 05:55:42;;;;;;;10.58;3.83;;;;;;;26.71;28.95;100345.94;1860928;77;21499;-89
2022/08/27 06:01:03;;;;;;;15.18;3.92;;;;;;;26.67;28.88;100349.55;1859742;77;21077;-89
2022/08/27 06:03:23;;;;;;;20.27;4.72;;;;;;;26.73;28.97;100353.30;1849955;77;21379;-88
2022/08/27 06:05:52;;;;;;;13.38;4.40;;;;;;;26.88;28.40;100349.90;1849337;77;20834;-89
2022/08/27 06:08:19;;;;;;;14.13;4.92;;;;;;;27.09;28.57;100352.37;1797807;77;20870;-89
2022/08/27 06:10:46;;;;;;;19.87;5.25;;;;;;;27.35;28.33;100348.05;1849435;77;21199;-90
2022/08/27 06:13:13;;;;;;;15.05;4.78;;;;;;;27.76;28.35;100350.96;1849439;77;20917;-88
2022/08/27 06:15:39;;;;;;;11.12;3.98;;;;;;;28.25;27.21;100352.25;1849319;77;20923;-89
2022/08/27 06:18:06;;;;;;;12.37;4.12;;;;;;;28.76;26.91;100346.48;1849830;77;20881;-91
2022/08/27 06:20:33;;;;;;;16.48;4.62;;;;;;;29.33;26.45;100353.23;1849338;77;20956;-90
2022/08/27 06:23:00;;;;;;;10.78;4.15;;;;;;;29.88;25.33;100349.25;1823621;77;21227;-89
2022/08/27 06:25:27;;;;;;;17.55;6.10;;;;;;;30.37;24.91;100350.61;1849602;77;20920;-91
2022/08/27 06:27:54;;;;;;;17.62;5.53;;;;;;;30.89;24.12;100352.80;1850029;76;20944;-91
2022/08/27 06:30:20;;;;;;;14.28;4.00;;;;;;;31.34;23.71;100350.35;1850382;77;20889;-90
2022/08/27 06:32:46;;;;;;;11.73;4.25;;;;;;;31.70;23.18;100346.28;1849688;76;20854;-89
2022/08/27 06:35:13;;;;;;;12.58;4.65;;;;;;;32.06;22.81;100349.77;1849505;76;21120;-89
2022/08/27 06:37:40;;;;;;;12.70;5.53;;;;;;;32.33;22.39;100345.97;1849278;77;20870;-90
2022/08/27 06:40:09;;;;;;;14.03;5.00;;;;;;;32.40;22.39;100350.70;1849592;77;20900;-91
2022/08/27 06:42:37;;;;;;;20.50;8.15;;;;;;;32.57;22.50;100346.17;1849645;77;20881;-91
2022/08/27 06:45:04;;;;;;;8.60;5.10;;;;;;;32.76;22.37;100347.30;1849848;77;20952;-89
2022/08/27 06:47:31;;;;;;;12.88;5.47;;;;;;;32.99;21.80;100336.79;1849797;77;21144;-87
2022/08/27 06:49:58;;;;;;;15.25;5.17;;;;;;;33.24;21.83;100336.41;1849937;77;20862;-90
2022/08/27 06:52:25;;;;;;;13.38;5.20;;;;;;;33.51;21.59;100337.88;1851714;77;20968;-89
2022/08/27 06:54:52;;;;;;;10.98;5.72;;;;;;;33.78;20.52;100331.17;1852629;77;20908;-90
2022/08/27 06:57:18;;;;;;;11.12;4.95;;;;;;;33.94;20.56;100337.62;1850571;77;21366;-89
2022/08/27 06:59:45;;;;;;;11.75;4.28;;;;;;;34.03;20.60;100330.64;1845880;76;21124;-89
2022/08/27 07:02:12;;;;;;;9.65;4.28;;;;;;;34.23;20.28;100325.18;1835172;76;20962;-89
2022/08/27 07:04:38;;;;;;;12.93;4.20;;;;;;;34.56;20.21;100328.77;1835809;76;20839;-89
2022/08/27 07:07:06;;;;;;;8.00;4.00;;;;;;;34.87;19.63;100335.33;1835602;77;20902;-89
2022/08/27 07:09:35;;;;;;;9.93;4.75;;;;;;;35.08;19.65;100328.95;1835203;77;20923;-88
2022/08/27 07:12:03;;;;;;;15.05;5.58;;;;;;;35.32;19.42;100322.30;1807407;78;21449;-88
2022/08/27 07:14:30;;;;;;;17.80;5.17;;;;;;;35.61;19.45;100328.17;1835757;77;20859;-91
2022/08/27 07:16:57;;;;;;;14.58;5.40;;;;;;;35.87;19.16;100318.22;1835558;76;20902;-90
2022/08/27 07:19:24;;;;;;;15.68;4.72;;;;;;;36.15;18.77;100310.67;1835950;77;21383;-88
2022/08/27 07:21:53;;;;;;;16.25;4.78;;;;;;;36.36;18.71;100314.27;1835036;77;20863;-89
2022/08/27 07:24:19;;;;;;;18.40;5.28;;;;;;;36.62;18.42;100312.38;1835550;78;21139;-89
2022/08/27 07:26:46;;;;;;;15.05;4.03;;;;;;;36.89;18.29;100306.09;1834888;77;20974;-89
2022/08/27 07:29:14;;;;;;;14.83;4.97;;;;;;;37.18;18.28;100302.80;1835096;76;20926;-90
2022/08/27 07:31:41;;;;;;;9.78;4.75;;;;;;;37.48;17.38;100295.02;1835288;77;20831;-90
2022/08/27 07:34:07;;;;;;;15.10;5.20;;;;;;;37.66;17.38;100290.88;1835104;77;21048;-88
2022/08/27 07:36:37;;;;;;;12.95;4.87;;;;;;;37.83;16.97;100285.61;1834879;77;21133;-88
2022/08/27 07:39:04;;;;;;;7.58;3.67;;;;;;;37.97;17.08;100292.08;1835096;76;20835;-89
2022/08/27 07:44:23;;;;;;;9.83;3.17;;;;;;;38.15;16.24;100284.62;1835130;77;21017;-89
2022/08/27 07:46:46;;;;;;;6.45;2.65;;;;;;;38.03;15.09;100290.17;1835982;77;20867;-88
2022/08/27 07:49:15;;;;;;;5.80;3.00;;;;;;;37.92;15.21;100294.30;1835720;77;21135;-88
2022/08/27 07:51:41;;;;;;;13.65;4.17;;;;;;;37.86;15.08;100279.55;1835408;76;20902;-89
2022/08/27 07:54:07;;;;;;;9.15;2.95;;;;;;;37.82;15.07;100276.58;1835556;77;20910;-87
2022/08/27 07:56:35;;;;;;;9.10;3.45;;;;;;;37.73;14.99;100277.72;1835383;77;20931;-89
2022/08/27 07:59:03;;;;;;;14.38;2.72;;;;;;;37.77;15.38;100270.30;1835622;77;20890;-88
2022/08/27 08:01:33;;;;;;;9.10;3.60;;;;;;;37.97;15.48;100274.28;1848266;76;21263;-88
2022/08/27 08:03:59;;;;;;;12.40;3.58;;;;;;;38.18;15.31;100274.17;1849995;77;20834;-89
2022/08/27 08:06:26;;;;;;;9.00;3.30;;;;;;;38.29;15.18;100269.72;1850072;77;20917;-88
2022/08/27 08:08:53;;;;;;;11.65;3.30;;;;;;;38.41;15.44;100263.05;1849939;77;20987;-89
2022/08/27 08:11:20;;;;;;;9.90;4.42;;;;;;;38.55;15.36;100268.16;1849875;77;20834;-88
2022/08/27 08:13:47;;;;;;;9.08;3.90;;;;;;;38.69;15.56;100272.44;1850068;77;21120;-88
2022/08/27 08:16:15;;;;;;;7.95;3.85;;;;;;;38.94;15.47;100269.45;1849609;77;20874;-89
2022/08/27 08:18:41;;;;;;;15.93;6.12;;;;;;;39.18;15.39;100267.29;1849625;76;20925;-90
2022/08/27 08:21:11;;;;;;;12.20;3.42;;;;;;;39.33;15.23;100257.51;1850135;77;21323;-90
2022/08/27 08:23:38;;;;;;;6.70;3.00;;;;;;;39.53;15.21;100260.58;1850502;77;20833;-89
2022/08/27 08:26:05;;;;;;;7.30;2.65;;;;;;;39.68;14.54;100263.65;1850781;77;21230;-88
2022/08/27 08:28:32;;;;;;;9.13;2.80;;;;;;;39.65;14.27;100269.74;1851324;77;20953;-85
2022/08/27 08:31:00;;;;;;;5.55;2.20;;;;;;;39.62;14.15;100273.63;1825716;77;20904;-89
2022/08/27 08:33:27;;;;;;;4.65;2.70;;;;;;;39.56;14.41;100266.84;1851487;77;20947;-88
2022/08/27 08:35:54;;;;;;;8.78;3.40;;;;;;;39.51;14.41;100271.56;1851245;76;20996;-89
2022/08/27 08:38:20;;;;;;;8.75;3.22;;;;;;;39.39;14.11;100267.87;1850228;77;21120;-89
2022/08/27 08:40:52;;;;;;;6.33;2.87;;;;;;;39.30;14.73;100262.19;1824064;77;20905;-89
2022/08/27 08:43:40;;;;;;;11.28;2.65;;;;;;;39.37;14.46;100270.06;1850042;77;21481;-90
2022/08/27 08:46:36;;;;;;;6.42;2.30;;;;;;;39.44;14.71;100267.80;1823726;77;20885;-88
2022/08/27 08:49:39;;;;;;;11.55;3.98;;;;;;;39.54;14.41;100266.88;1850670;77;20910;-88
2022/08/27 08:52:49;;;;;;;6.78;2.35;;;;;;;39.54;14.81;100273.17;1850211;77;21176;-90
2022/08/27 08:55:38;;;;;;;6.28;3.15;;;;;;;39.69;14.63;100268.58;1849486;77;20944;-89
2022/08/27 08:58:26;;;;;;;9.40;2.80;;;;;;;39.83;14.76;100272.83;1849513;77;20936;-89
2022/08/27 09:00:59;;;;;;;7.90;2.02;;;;;;;39.99;14.36;100281.09;1819813;77;20927;-89
2022/08/27 09:03:26;;;;;;;10.43;3.08;;;;;;;39.89;14.53;100271.63;1835313;77;21356;-90
2022/08/27 09:05:58;;;;;;;10.10;3.00;;;;;;;39.83;14.45;100269.52;1835067;77;21083;-88
2022/08/27 09:08:35;;;;;;;18.65;15.10;;;;;;;39.80;14.50;100276.96;1835335;77;20923;-89
2022/08/27 09:11:21;;;;;;;8.50;3.20;;;;;;;39.62;14.83;100265.39;1835115;77;20945;-89
2022/08/27 09:13:59;;;;;;;7.00;2.80;;;;;;;39.47;15.34;100257.63;1835205;77;20859;-88
2022/08/27 09:16:26;;;;;;;9.70;2.75;;;;;;;39.37;15.17;100270.87;1835365;77;20911;-90
2022/08/27 09:18:53;;;;;;;10.10;3.02;;;;;;;38.99;15.20;100270.52;1835202;77;21334;-88
2022/08/27 09:21:26;;;;;;;7.90;2.77;;;;;;;38.66;15.60;100266.95;1835498;77;20907;-87
2022/08/27 09:24:16;;;;;;;7.90;2.35;;;;;;;38.37;15.59;100275.13;1827814;76;20965;-89
2022/08/27 09:26:43;;;;;;;14.33;2.92;;;;;;;38.11;16.00;100267.11;1835769;77;20954;-89
2022/08/27 09:29:15;;;;;;;8.10;2.90;;;;;;;38.08;16.03;100273.70;1835696;77;21369;-88
2022/08/27 09:32:01;;;;;;;4.05;2.37;;;;;;;38.12;16.19;100272.03;1808454;77;21194;-90
2022/08/27 09:34:38;;;;;;;8.38;2.72;;;;;;;38.19;16.17;100253.35;1835100;76;20914;-90
2022/08/27 09:37:19;;;;;;;7.53;2.25;;;;;;;38.30;16.35;100267.23;1835116;78;20966;-88
2022/08/27 09:39:54;;;;;;;7.55;2.12;;;;;;;38.50;16.40;100260.80;1835456;77;21055;-90
2022/08/27 09:42:43;;;;;;;7.53;2.30;;;;;;;38.85;16.08;100263.50;1836051;76;20864;-90
2022/08/27 09:45:15;;;;;;;10.53;3.22;;;;;;;39.04;15.72;100251.25;1753638;80;21969;-88
2022/08/27 09:47:51;;;;;;;8.28;2.92;;;;;;;39.21;15.60;100268.63;1753669;80;21590;-92
2022/08/27 09:50:21;;;;;;;5.95;2.92;;;;;;;39.26;15.26;100272.11;1753690;81;20958;-89
2022/08/27 09:52:58;;;;;;;8.45;2.45;;;;;;;39.23;15.55;100264.48;1753877;80;20938;-89
2022/08/27 09:55:47;;;;;;;12.70;2.37;;;;;;;39.17;16.04;100269.75;1753671;80;20962;-90
2022/08/27 09:58:24;;;;;;;11.60;3.30;;;;;;;39.15;15.80;100271.97;1754095;81;21242;-87
2022/08/27 10:01:05;;;;;;;8.98;2.90;;;;;;;38.84;15.59;100276.38;1750176;80;21112;-89
2022/08/27 10:03:32;;;;;;;7.97;3.50;;;;;;;38.51;15.90;100294.49;1745195;80;21041;-89
2022/08/27 10:05:59;;;;;;;8.40;2.30;;;;;;;38.09;16.23;100294.52;1744630;82;20883;-90
2022/08/27 10:08:31;;;;;;;10.25;4.00;;;;;;;37.83;16.42;100293.27;1744687;81;20977;-88
2022/08/27 10:11:07;;;;;;;5.35;2.90;;;;;;;37.44;16.64;100277.55;1744504;81;21139;-88
2022/08/27 10:14:04;;;;;;;6.03;3.02;;;;;;;37.07;17.08;100278.72;1744569;81;20966;-89
2022/08/27 10:17:03;;;;;;;12.85;2.85;;;;;;;36.69;17.74;100282.89;1744587;80;20959;-89
2022/08/27 10:19:43;;;;;;;7.40;2.20;;;;;;;36.35;18.12;100282.57;1805222;77;20851;-90
2022/08/27 10:22:42;;;;;;;7.05;2.45;;;;;;;36.07;18.18;100281.42;1860164;77;20848;-87
2022/08/27 10:25:36;;;;;;;8.10;2.35;;;;;;;35.83;18.33;100288.45;1860334;77;20892;-90
2022/08/27 10:28:28;;;;;;;11.70;3.00;;;;;;;35.59;18.50;100286.14;1860184;76;20955;-88
2022/08/27 10:31:07;;;;;;;10.85;2.83;;;;;;;35.40;18.88;100280.35;1860402;76;21408;-90
2022/08/27 10:34:06;;;;;;;11.12;2.87;;;;;;;35.23;19.19;100283.25;1797561;76;21566;-89
2022/08/27 10:37:13;;;;;;;11.55;3.20;;;;;;;35.13;19.87;100285.94;1860432;77;21333;-88
2022/08/27 10:39:58;;;;;;;10.43;3.22;;;;;;;35.14;19.99;100290.84;1860460;77;21900;-88
2022/08/27 10:42:29;;;;;;;11.15;3.08;;;;;;;35.17;20.09;100286.22;1861195;76;20915;-90
2022/08/27 10:45:41;;;;;;;13.35;3.02;;;;;;;34.95;19.78;100261.27;1860839;77;20915;-90
2022/08/27 10:48:23;;;;;;;15.32;3.27;;;;;;;34.99;19.89;100292.34;1861324;77;21521;-87
2022/08/27 10:50:58;;;;;;;8.85;2.37;;;;;;;34.91;19.95;100290.12;1857305;77;21345;-89
2022/08/27 10:53:54;;;;;;;5.30;2.35;;;;;;;35.01;19.82;100282.55;1860087;77;21872;-89
2022/08/27 10:56:27;;;;;;;11.75;2.77;;;;;;;35.18;19.74;100281.88;1860121;77;20887;-90
2022/08/27 10:59:24;;;;;;;18.62;4.00;;;;;;;35.48;19.67;100285.83;1851103;77;21416;-87
2022/08/27 11:01:59;;;;;;;13.83;3.67;;;;;;;35.76;19.55;100285.98;1860331;77;20875;-87
2022/08/27 11:04:30;;;;;;;7.80;3.00;;;;;;;36.02;19.04;100284.15;1860029;76;20977;-89
2022/08/27 11:07:03;;;;;;;12.20;3.08;;;;;;;36.23;18.94;100283.66;1860035;77;21151;-87
2022/08/27 11:09:48;;;;;;;13.20;3.30;;;;;;;36.42;19.26;100279.02;1860498;77;20907;-89
2022/08/27 11:12:19;;;;;;;11.10;3.35;;;;;;;36.62;18.61;100276.86;1861672;77;21381;-89
2022/08/27 11:15:12;;;;;;;13.13;3.62;;;;;;;36.84;19.02;100277.41;1860184;77;20950;-88
2022/08/27 11:17:50;;;;;;;10.93;3.42;;;;;;;37.16;18.63;100273.54;1860303;77;21378;-89
2022/08/27 11:20:28;;;;;;;7.72;3.05;;;;;;;37.47;18.07;100282.45;1860311;76;21075;-88
2022/08/27 11:23:05;;;;;;;13.75;3.33;;;;;;;37.72;17.94;100281.55;1860408;77;20970;-88
2022/08/27 11:25:56;;;;;;;8.65;3.25;;;;;;;37.95;17.45;100288.80;1860353;77;20907;-87
2022/08/27 11:28:43;;;;;;;8.50;3.42;;;;;;;38.04;17.48;100283.05;1860351;76;21048;-87
2022/08/27 11:31:37;;;;;;;7.95;3.20;;;;;;;38.20;17.15;100287.87;1860708;76;21330;-89
2022/08/27 11:34:36;;;;;;;9.78;2.98;;;;;;;38.24;17.08;100282.06;1862207;77;21200;-89
2022/08/27 11:37:40;;;;;;;9.85;3.35;;;;;;;38.23;17.06;100292.77;1861045;76;20982;-90
2022/08/27 11:40:32;;;;;;;9.75;3.12;;;;;;;38.14;17.55;100290.38;1861466;77;20860;-87
2022/08/27 11:43:10;;;;;;;11.78;3.27;;;;;;;38.06;17.36;100286.86;1860495;77;20856;-87
2022/08/27 11:45:38;;;;;;;10.35;4.30;;;;;;;38.07;17.47;100281.66;1861358;76;20843;-90
2022/08/27 11:48:28;;;;;;;7.80;2.65;;;;;;;38.14;17.61;100282.97;1861733;77;21223;-87